createdAt,value
2019-02-17T00:00:39.150Z,39.67
2019-02-17T00:03:08.191Z,46.10
2019-02-17T00:05:37.097Z,45.50
2019-02-17T00:08:06.340Z,60.07
2019-02-17T00:10:36.260Z,44.97
2019-02-17T00:13:05.143Z,67.47
2019-02-17T00:15:34.063Z,80.50
2019-02-17T00:18:03.024Z,78.60
2019-02-17T00:20:31.899Z,76.83
2019-02-17T00:23:00.715Z,72.50
2019-02-17T00:25:31.935Z,77.50
2019-02-17T00:28:00.803Z,60.00
2019-02-17T00:30:29.888Z,59.30
2019-02-17T00:32:58.865Z,52.73
2019-02-17T00:35:27.758Z,49.17
2019-02-17T00:37:56.710Z,31.97
2019-02-17T00:40:25.532Z,28.37
2019-02-17T00:42:54.421Z,37.87
2019-02-17T00:45:23.256Z,39.63
2019-02-17T00:47:52.177Z,36.27
2019-02-17T00:50:20.982Z,40.00
2019-02-17T00:52:49.987Z,42.20
2019-02-17T00:55:18.843Z,34.87
2019-02-17T00:57:47.728Z,28.37
2019-02-17T01:00:16.678Z,35.80
2019-02-17T01:02:45.762Z,27.47
2019-02-17T01:05:14.709Z,22.30
2019-02-17T01:07:43.485Z,27.27
2019-02-17T01:10:12.346Z,27.47
2019-02-17T01:12:41.247Z,28.60
2019-02-17T01:15:10.470Z,23.27
2019-02-17T01:17:39.331Z,32.80
2019-02-17T01:20:08.294Z,23.40
2019-02-17T01:22:37.079Z,25.43
2019-02-17T01:25:06.131Z,20.43
2019-02-17T01:27:35.061Z,23.60
2019-02-17T01:30:03.986Z,16.63
2019-02-17T01:32:32.798Z,27.20
2019-02-17T01:35:01.666Z,28.80
2019-02-17T01:37:30.486Z,21.33
2019-02-17T01:39:59.271Z,13.37
2019-02-17T01:42:28.265Z,18.87
2019-02-17T01:44:57.188Z,19.63
2019-02-17T01:47:25.953Z,11.27
2019-02-17T01:49:54.848Z,15.60
2019-02-17T01:52:23.802Z,19.00
2019-02-17T01:54:52.682Z,11.97
2019-02-17T01:57:21.432Z,14.73
2019-02-17T01:59:50.374Z,12.17
2019-02-17T02:02:19.411Z,13.13
2019-02-17T02:04:48.223Z,13.87
2019-02-17T02:07:17.150Z,11.03
2019-02-17T02:09:45.951Z,9.87
2019-02-17T02:12:14.852Z,16.03
2019-02-17T02:14:43.750Z,14.80
2019-02-17T02:17:12.663Z,15.43
2019-02-17T02:19:41.695Z,14.57
2019-02-17T02:22:19.758Z,16.73
2019-02-17T02:24:48.751Z,12.33
2019-02-17T02:27:17.607Z,14.83
2019-02-17T02:29:46.391Z,13.53
2019-02-17T02:32:15.159Z,17.00
2019-02-17T02:34:44.147Z,18.00
2019-02-17T02:37:13.138Z,28.27
2019-02-17T02:39:41.987Z,15.23
2019-02-17T02:42:10.829Z,17.80
2019-02-17T02:44:39.641Z,13.67
2019-02-17T02:47:08.558Z,14.80
2019-02-17T02:49:37.495Z,14.30
2019-02-17T02:52:06.306Z,13.50
2019-02-17T02:54:35.062Z,14.47
2019-02-17T02:57:04.079Z,16.43
2019-02-17T02:59:35.166Z,16.10
2019-02-17T03:02:04.071Z,11.80
2019-02-17T03:04:33.168Z,13.27
2019-02-17T03:07:04.701Z,16.27
2019-02-17T03:09:33.676Z,13.73
2019-02-17T03:12:02.503Z,13.13
2019-02-17T03:14:31.408Z,10.83
2019-02-17T03:17:00.909Z,13.27
2019-02-17T03:19:29.863Z,20.82
2019-02-17T03:21:58.921Z,13.93
2019-02-17T03:24:27.732Z,15.97
2019-02-17T03:26:56.740Z,12.77
2019-02-17T03:29:25.618Z,11.40
2019-02-17T03:31:54.595Z,12.90
2019-02-17T03:34:23.337Z,18.60
2019-02-17T03:36:52.184Z,17.87
2019-02-17T03:39:21.068Z,16.35
2019-02-17T03:41:49.843Z,13.10
2019-02-17T03:44:18.863Z,17.17
2019-02-17T03:46:47.659Z,16.47
2019-02-17T03:49:16.442Z,15.73
2019-02-17T03:51:45.220Z,14.10
2019-02-17T03:54:14.108Z,14.70
2019-02-17T03:56:42.959Z,13.40
2019-02-17T03:59:13.052Z,13.13
2019-02-17T04:01:41.818Z,14.38
2019-02-17T04:04:11.245Z,16.07
2019-02-17T04:06:40.200Z,16.45
2019-02-17T04:09:09.267Z,16.15
2019-02-17T04:11:38.226Z,14.05
2019-02-17T04:14:07.287Z,15.88
2019-02-17T04:16:36.097Z,14.83
2019-02-17T04:19:05.017Z,18.98
2019-02-17T04:21:33.941Z,27.67
2019-02-17T04:24:02.750Z,15.28
2019-02-17T04:26:31.542Z,22.00
2019-02-17T04:29:00.348Z,15.53
2019-02-17T04:31:29.431Z,13.30
2019-02-17T04:33:58.283Z,18.48
2019-02-17T04:36:27.148Z,18.60
2019-02-17T04:38:56.139Z,17.10
2019-02-17T04:41:25.070Z,16.05
2019-02-17T04:43:54.238Z,16.05
2019-02-17T04:46:23.125Z,24.47
2019-02-17T04:48:52.198Z,21.37
2019-02-17T04:51:21.024Z,17.27
2019-02-17T04:53:49.902Z,14.18
2019-02-17T04:56:18.662Z,20.43
2019-02-17T04:58:47.684Z,13.05
2019-02-17T05:01:16.470Z,16.90
2019-02-17T05:03:45.365Z,15.60
2019-02-17T05:06:14.419Z,18.92
2019-02-17T05:08:43.244Z,14.93
2019-02-17T05:11:12.103Z,16.20
2019-02-17T05:13:40.879Z,18.77
2019-02-17T05:16:11.020Z,17.98
2019-02-17T05:18:39.862Z,17.75
2019-02-17T05:21:08.687Z,18.15
2019-02-17T05:23:37.467Z,18.37
2019-02-17T05:26:06.324Z,16.07
2019-02-17T05:28:35.070Z,25.77
2019-02-17T05:31:03.979Z,16.35
2019-02-17T05:33:32.911Z,15.58
2019-02-17T05:36:01.741Z,20.60
2019-02-17T05:38:30.700Z,17.55
2019-02-17T05:40:59.523Z,21.45
2019-02-17T05:43:28.366Z,16.62
2019-02-17T05:45:57.202Z,18.07
2019-02-17T05:48:26.011Z,18.40
2019-02-17T05:50:54.939Z,17.87
2019-02-17T05:53:23.668Z,15.30
2019-02-17T05:55:52.464Z,15.53
2019-02-17T05:58:21.261Z,27.15
2019-02-17T06:00:50.408Z,16.40
2019-02-17T06:03:19.220Z,13.05
2019-02-17T06:05:48.038Z,18.42
2019-02-17T06:08:16.895Z,13.65
2019-02-17T06:10:45.759Z,13.35
2019-02-17T06:13:14.561Z,15.38
2019-02-17T06:15:43.337Z,14.47
2019-02-17T06:18:13.402Z,15.53
2019-02-17T06:20:42.247Z,17.57
2019-02-17T06:23:14.303Z,16.48
2019-02-17T06:25:43.413Z,15.23
2019-02-17T06:28:12.299Z,16.23
2019-02-17T06:30:43.100Z,15.72
2019-02-17T06:33:12.661Z,17.00
2019-02-17T06:35:43.202Z,28.65
2019-02-17T06:38:12.060Z,22.15
2019-02-17T06:40:40.931Z,16.07
2019-02-17T06:43:09.883Z,15.00
2019-02-17T06:45:38.744Z,16.50
2019-02-17T06:48:07.904Z,17.87
2019-02-17T06:50:38.507Z,18.80
2019-02-17T06:53:07.405Z,18.42
2019-02-17T06:55:55.325Z,20.77
2019-02-17T06:58:24.232Z,21.68
2019-02-17T07:00:54.751Z,18.07
2019-02-17T07:03:23.543Z,20.20
2019-02-17T07:06:11.462Z,22.10
2019-02-17T07:08:40.287Z,17.95
2019-02-17T07:11:09.175Z,14.83
2019-02-17T07:13:38.150Z,14.10
2019-02-17T07:16:06.940Z,19.85
2019-02-17T07:18:37.059Z,18.60
2019-02-17T07:21:11.398Z,18.67
2019-02-17T07:23:40.248Z,18.37
2019-02-17T07:26:09.402Z,18.03
2019-02-17T07:28:38.176Z,14.58
2019-02-17T07:31:07.097Z,20.53
2019-02-17T07:33:36.101Z,14.60
2019-02-17T07:36:05.314Z,20.27
2019-02-17T07:38:34.122Z,13.63
2019-02-17T07:41:02.938Z,22.80
2019-02-17T07:43:35.472Z,17.23
2019-02-17T07:46:04.499Z,18.20
2019-02-17T07:48:33.490Z,18.80
2019-02-17T07:51:03.726Z,19.83
2019-02-17T07:53:35.688Z,29.33
2019-02-17T07:56:04.608Z,29.00
2019-02-17T07:58:33.438Z,18.30
2019-02-17T08:01:02.644Z,18.03
2019-02-17T08:03:33.121Z,18.40
2019-02-17T08:06:02.329Z,17.03
2019-02-17T08:08:31.133Z,17.83
2019-02-17T08:11:03.911Z,16.97
2019-02-17T08:13:30.411Z,20.93
2019-02-17T08:15:59.146Z,17.00
2019-02-17T08:18:27.957Z,20.60
2019-02-17T08:20:56.736Z,23.57
2019-02-17T08:23:25.628Z,27.17
2019-02-17T08:25:54.433Z,15.30
2019-02-17T08:28:23.381Z,20.50
2019-02-17T08:30:52.291Z,14.83
2019-02-17T08:33:21.174Z,23.13
2019-02-17T08:35:49.966Z,25.63
2019-02-17T08:38:18.718Z,21.53
2019-02-17T08:40:47.526Z,18.10
2019-02-17T08:43:16.348Z,21.00
2019-02-17T08:45:45.418Z,20.93
2019-02-17T08:48:14.212Z,20.37
2019-02-17T08:50:43.059Z,18.50
2019-02-17T08:53:11.919Z,18.17
2019-02-17T08:55:40.730Z,18.10
2019-02-17T08:58:09.895Z,20.13
2019-02-17T09:00:38.975Z,19.50
2019-02-17T09:03:07.816Z,21.20
2019-02-17T09:05:43.929Z,21.87
2019-02-17T09:08:07.384Z,20.70
2019-02-17T09:10:36.257Z,23.70
2019-02-17T09:13:05.161Z,23.57
2019-02-17T09:15:34.180Z,22.67
2019-02-17T09:18:03.171Z,22.53
2019-02-17T09:20:32.101Z,24.23
2019-02-17T09:23:00.934Z,24.93
2019-02-17T09:25:33.776Z,25.07
2019-02-17T09:28:02.703Z,29.43
2019-02-17T09:30:31.649Z,24.50
2019-02-17T09:33:03.251Z,24.43
2019-02-17T09:35:33.772Z,27.10
2019-02-17T09:38:02.680Z,27.40
2019-02-17T09:40:31.484Z,24.80
2019-02-17T09:43:00.605Z,28.60
2019-02-17T09:45:29.559Z,25.83
2019-02-17T09:47:58.328Z,27.23
2019-02-17T09:50:27.129Z,25.23
2019-02-17T09:52:55.940Z,33.40
2019-02-17T09:55:24.773Z,51.50
2019-02-17T09:57:53.715Z,35.23
2019-02-17T10:00:22.570Z,28.60
2019-02-17T10:02:51.361Z,33.30
2019-02-17T10:05:20.149Z,25.10
2019-02-17T10:07:51.172Z,27.93
2019-02-17T10:10:19.634Z,34.00
2019-02-17T10:12:48.419Z,31.97
2019-02-17T10:15:17.262Z,39.77
2019-02-17T10:17:46.032Z,29.57
2019-02-17T10:20:15.456Z,157.87
2019-02-17T10:22:50.363Z,26.43
2019-02-17T10:25:21.741Z,29.23
2019-02-17T10:27:51.461Z,33.50
2019-02-17T10:30:21.413Z,44.70
2019-02-17T10:32:50.637Z,35.90
2019-02-17T10:35:19.640Z,33.50
2019-02-17T10:37:48.759Z,30.40
2019-02-17T10:40:17.551Z,32.43
2019-02-17T10:42:46.339Z,33.43
2019-02-17T10:45:15.374Z,32.10
2019-02-17T10:47:44.248Z,25.77
2019-02-17T10:50:13.205Z,31.03
2019-02-17T10:52:42.047Z,32.67
2019-02-17T10:55:11.124Z,27.93
2019-02-17T10:57:40.087Z,24.60
2019-02-17T11:00:12.361Z,27.60
2019-02-17T11:02:47.079Z,29.40
2019-02-17T11:05:11.864Z,30.00
2019-02-17T11:07:40.649Z,25.80
2019-02-17T11:10:09.761Z,33.73
2019-02-17T11:12:38.693Z,31.33
2019-02-17T11:15:09.509Z,29.70
2019-02-17T11:17:38.733Z,31.93
2019-02-17T11:20:07.727Z,26.90
2019-02-17T11:22:36.507Z,36.13
2019-02-17T11:25:05.431Z,27.83
2019-02-17T11:27:34.241Z,28.97
2019-02-17T11:30:05.441Z,34.70
2019-02-17T11:32:33.931Z,29.90
2019-02-17T11:35:02.808Z,31.83
2019-02-17T11:37:31.637Z,37.70
2019-02-17T11:40:00.426Z,30.20
2019-02-17T11:42:29.235Z,29.13
2019-02-17T11:44:58.165Z,27.63
2019-02-17T11:47:27.035Z,25.60
2019-02-17T11:49:55.901Z,34.83
2019-02-17T11:52:24.858Z,28.30
2019-02-17T11:54:53.727Z,35.20
2019-02-17T11:57:22.694Z,34.07
2019-02-17T11:59:51.505Z,27.80
2019-02-17T12:02:25.100Z,27.40
2019-02-17T12:04:51.012Z,32.63
2019-02-17T12:07:19.822Z,29.67
2019-02-17T12:09:48.612Z,32.53
2019-02-17T12:12:17.376Z,29.60
2019-02-17T12:14:46.140Z,34.40
2019-02-17T12:17:14.940Z,30.00
2019-02-17T12:19:43.679Z,31.60
2019-02-17T12:22:31.576Z,26.97
2019-02-17T12:25:10.485Z,27.53
2019-02-17T12:27:53.036Z,27.70
2019-02-17T12:30:23.638Z,28.67
2019-02-17T12:32:52.457Z,29.53
2019-02-17T12:35:21.257Z,34.37
2019-02-17T12:37:50.117Z,28.93
2019-02-17T12:40:18.911Z,25.50
2019-02-17T12:42:47.744Z,30.17
2019-02-17T12:45:18.413Z,32.17
2019-02-17T12:47:57.008Z,32.03
2019-02-17T12:50:17.880Z,27.90
2019-02-17T12:52:47.929Z,33.00
2019-02-17T12:55:16.805Z,32.33
2019-02-17T12:57:45.610Z,28.80
2019-02-17T13:00:16.638Z,28.50
2019-02-17T13:02:45.509Z,32.50
2019-02-17T13:05:14.400Z,33.00
2019-02-17T13:07:43.187Z,32.00
2019-02-17T13:10:12.153Z,27.10
2019-02-17T13:12:41.059Z,31.13
2019-02-17T13:15:10.946Z,41.13
2019-02-17T13:17:39.835Z,29.97
2019-02-17T13:20:10.438Z,27.23
2019-02-17T13:22:39.224Z,39.13
2019-02-17T13:25:09.388Z,28.60
2019-02-17T13:27:38.135Z,32.90
2019-02-17T13:30:10.447Z,38.40
2019-02-17T13:32:39.219Z,28.20
2019-02-17T13:35:08.171Z,31.07
2019-02-17T13:37:36.935Z,30.70
2019-02-17T13:40:06.481Z,33.50
2019-02-17T13:42:35.267Z,27.53
2019-02-17T13:45:04.142Z,40.10
2019-02-17T13:47:32.908Z,31.07
2019-02-17T13:50:01.787Z,34.93
2019-02-17T13:52:32.067Z,32.93
2019-02-17T13:55:01.011Z,33.80
2019-02-17T13:57:29.778Z,32.37
2019-02-17T13:59:58.546Z,36.87
2019-02-17T14:02:27.385Z,37.23
2019-02-17T14:04:56.196Z,42.27
2019-02-17T14:07:24.993Z,31.67
2019-02-17T14:09:53.784Z,45.70
2019-02-17T14:12:22.569Z,37.17
2019-02-17T14:14:51.351Z,36.37
2019-02-17T14:17:20.141Z,45.47
2019-02-17T14:19:48.941Z,44.03
2019-02-17T14:22:17.766Z,39.10
2019-02-17T14:24:46.624Z,49.23
2019-02-17T14:27:15.376Z,40.20
2019-02-17T14:29:44.112Z,36.70
2019-02-17T14:32:12.900Z,39.90
2019-02-17T14:34:41.786Z,37.20
2019-02-17T14:37:10.550Z,37.57
2019-02-17T14:39:39.339Z,36.93
2019-02-17T14:42:08.095Z,31.20
2019-02-17T14:44:36.884Z,30.47
2019-02-17T14:47:06.029Z,32.67
2019-02-17T14:49:34.801Z,29.70
2019-02-17T14:52:03.622Z,42.30
2019-02-17T14:54:33.412Z,25.97
2019-02-17T14:57:02.238Z,32.57
2019-02-17T14:59:31.083Z,34.60
2019-02-17T15:01:59.993Z,31.37
2019-02-17T15:04:28.794Z,37.03
2019-02-17T15:06:57.562Z,38.60
2019-02-17T15:09:26.402Z,35.40
2019-02-17T15:11:55.241Z,33.77
2019-02-17T15:14:24.081Z,38.30
2019-02-17T15:16:53.230Z,35.50
2019-02-17T15:19:22.050Z,32.60
2019-02-17T15:21:50.902Z,35.00
2019-02-17T15:24:22.996Z,31.57
2019-02-17T15:26:52.167Z,26.40
2019-02-17T15:29:21.224Z,35.13
2019-02-17T15:31:50.033Z,38.93
2019-02-17T15:34:19.083Z,33.80
2019-02-17T15:36:51.750Z,32.10
2019-02-17T15:39:20.730Z,31.63
2019-02-17T15:41:50.004Z,41.03
2019-02-17T15:44:18.800Z,39.80
2019-02-17T15:46:47.560Z,39.40
2019-02-17T15:49:16.318Z,33.33
2019-02-17T15:51:45.126Z,39.97
2019-02-17T15:54:13.894Z,30.37
2019-02-17T15:56:42.722Z,34.03
2019-02-17T15:59:11.493Z,36.53
2019-02-17T16:01:40.320Z,36.90
2019-02-17T16:04:09.186Z,37.40
2019-02-17T16:06:38.044Z,33.27
2019-02-17T16:09:07.435Z,33.03
2019-02-17T16:11:36.400Z,33.87
2019-02-17T16:14:05.404Z,31.93
2019-02-17T16:16:34.359Z,32.70
2019-02-17T16:19:03.226Z,43.83
2019-02-17T16:21:32.194Z,30.40
2019-02-17T16:24:01.119Z,30.53
2019-02-17T16:26:29.983Z,34.50
2019-02-17T16:28:58.873Z,33.77
2019-02-17T16:31:27.875Z,38.40
2019-02-17T16:33:56.658Z,37.37
2019-02-17T16:36:25.507Z,41.07
2019-02-17T16:38:54.300Z,35.60
2019-02-17T16:41:23.194Z,35.23
2019-02-17T16:43:52.120Z,39.57
2019-02-17T16:46:20.979Z,35.43
2019-02-17T16:48:49.868Z,36.80
2019-02-17T16:51:18.804Z,32.63
2019-02-17T16:53:47.616Z,32.37
2019-02-17T16:56:16.472Z,40.77
2019-02-17T16:58:45.254Z,32.77
2019-02-17T17:01:14.140Z,36.97
2019-02-17T17:03:42.963Z,37.27
2019-02-17T17:06:11.982Z,31.70
2019-02-17T17:08:40.832Z,43.27
2019-02-17T17:11:09.728Z,33.70
2019-02-17T17:13:38.524Z,30.77
2019-02-17T17:16:07.476Z,32.27
2019-02-17T17:18:36.316Z,22.97
2019-02-17T17:21:05.164Z,27.70
2019-02-17T17:23:34.176Z,20.60
2019-02-17T17:26:04.063Z,30.30
2019-02-17T17:28:34.040Z,34.63
2019-02-17T17:31:03.662Z,28.03
2019-02-17T17:33:32.570Z,27.27
2019-02-17T17:36:02.316Z,23.37
2019-02-17T17:38:31.392Z,29.43
2019-02-17T17:41:00.190Z,24.53
2019-02-17T17:43:31.252Z,26.30
2019-02-17T17:46:00.116Z,26.40
2019-02-17T17:48:29.028Z,26.50
2019-02-17T17:50:57.930Z,26.20
2019-02-17T17:53:26.773Z,35.53
2019-02-17T17:55:55.627Z,32.03
2019-02-17T17:58:24.797Z,26.10
2019-02-17T18:00:53.606Z,24.60
2019-02-17T18:03:22.482Z,26.33
2019-02-17T18:05:51.422Z,31.37
2019-02-17T18:08:23.798Z,31.93
2019-02-17T18:10:58.436Z,28.20
2019-02-17T18:13:27.315Z,29.50
2019-02-17T18:15:57.559Z,28.60
2019-02-17T18:18:27.014Z,25.93
2019-02-17T18:20:56.176Z,38.27
2019-02-17T18:23:28.046Z,31.57
2019-02-17T18:25:56.975Z,24.30
2019-02-17T18:28:25.814Z,34.50
2019-02-17T18:30:54.765Z,36.90
2019-02-17T18:33:23.607Z,38.50
2019-02-17T18:35:52.936Z,27.77
2019-02-17T18:38:21.845Z,23.57
2019-02-17T18:40:53.983Z,30.23
2019-02-17T18:43:22.858Z,26.63
2019-02-17T18:45:51.665Z,29.70
2019-02-17T18:48:20.606Z,25.30
2019-02-17T18:50:58.763Z,28.30
2019-02-17T18:53:20.081Z,26.63
2019-02-17T18:55:49.368Z,32.17
2019-02-17T18:58:18.175Z,30.80
2019-02-17T19:00:47.575Z,29.43
2019-02-17T19:03:18.179Z,28.17
2019-02-17T19:05:47.488Z,30.37
2019-02-17T19:08:16.478Z,29.77
2019-02-17T19:10:51.914Z,32.47
2019-02-17T19:13:21.178Z,27.40
2019-02-17T19:15:50.118Z,29.60
2019-02-17T19:18:19.264Z,31.43
2019-02-17T19:20:48.101Z,27.73
2019-02-17T19:23:17.054Z,31.10
2019-02-17T19:25:46.247Z,25.93
2019-02-17T19:28:18.154Z,31.33
2019-02-17T19:30:47.326Z,37.40
2019-02-17T19:33:16.205Z,31.20
2019-02-17T19:35:47.152Z,28.43
2019-02-17T19:38:16.292Z,35.40
2019-02-17T19:40:45.809Z,30.17
2019-02-17T19:43:14.659Z,28.30
2019-02-17T19:45:43.680Z,33.37
2019-02-17T19:48:12.520Z,26.13
2019-02-17T19:50:43.831Z,33.03
2019-02-17T19:53:12.814Z,31.70
2019-02-17T19:55:41.938Z,25.43
2019-02-17T19:58:10.832Z,36.03
2019-02-17T20:00:39.869Z,35.00
2019-02-17T20:03:18.403Z,36.70
2019-02-17T20:05:52.274Z,37.20
2019-02-17T20:08:21.618Z,37.80
2019-02-17T20:10:50.599Z,37.80
2019-02-17T20:13:20.150Z,33.10
2019-02-17T20:15:49.242Z,32.17
2019-02-17T20:18:22.154Z,41.13
2019-02-17T20:20:51.190Z,32.57
2019-02-17T20:23:20.616Z,30.60
2019-02-17T20:25:51.740Z,29.63
2019-02-17T20:28:32.464Z,27.27
2019-02-17T20:30:51.602Z,43.27
2019-02-17T20:33:21.661Z,34.70
2019-02-17T20:35:51.218Z,35.87
2019-02-17T20:38:20.277Z,38.30
2019-02-17T20:40:49.286Z,32.93
2019-02-17T20:43:18.206Z,33.53
2019-02-17T20:45:47.203Z,30.60
2019-02-17T20:48:17.476Z,35.93
2019-02-17T20:50:47.795Z,85.33
2019-02-17T20:53:22.583Z,34.43
2019-02-17T20:55:51.438Z,33.53
2019-02-17T20:58:20.274Z,34.80
2019-02-17T21:00:49.705Z,32.03
2019-02-17T21:03:18.566Z,43.87
2019-02-17T21:05:53.762Z,39.80
2019-02-17T21:08:22.696Z,27.20
2019-02-17T21:10:51.652Z,38.40
2019-02-17T21:13:22.169Z,31.43
2019-02-17T21:15:51.099Z,47.53
2019-02-17T21:18:19.938Z,27.97
2019-02-17T21:20:48.911Z,28.50
2019-02-17T21:23:18.322Z,48.33
2019-02-17T21:25:48.339Z,30.33
2019-02-17T21:28:17.358Z,28.50
2019-02-17T21:30:46.341Z,30.70
2019-02-17T21:33:15.183Z,35.23
2019-02-17T21:35:44.074Z,34.30
2019-02-17T21:38:13.806Z,28.20
2019-02-17T21:40:42.783Z,25.13
2019-02-17T21:43:11.640Z,28.03
2019-02-17T21:45:45.700Z,32.27
2019-02-17T21:48:25.917Z,31.40
2019-02-17T21:50:54.761Z,22.90
2019-02-17T21:53:23.603Z,28.30
2019-02-17T21:55:52.398Z,30.00
2019-02-17T21:58:21.383Z,27.30
2019-02-17T22:00:52.003Z,29.63
2019-02-17T22:03:22.069Z,28.13
2019-02-17T22:05:51.057Z,29.93
2019-02-17T22:08:20.116Z,35.97
2019-02-17T22:10:48.901Z,29.23
2019-02-17T22:13:17.771Z,26.60
2019-02-17T22:15:51.107Z,27.83
2019-02-17T22:18:21.748Z,28.43
2019-02-17T22:21:13.104Z,37.03
2019-02-17T22:23:52.903Z,28.70
2019-02-17T22:26:24.902Z,26.40
2019-02-17T22:28:53.729Z,27.07
2019-02-17T22:31:22.555Z,30.20
2019-02-17T22:33:51.375Z,27.40
2019-02-17T22:36:21.493Z,29.60
2019-02-17T22:38:50.615Z,27.60
2019-02-17T22:41:19.586Z,25.43
2019-02-17T22:43:48.481Z,31.23
2019-02-17T22:46:17.245Z,29.30
2019-02-17T22:48:46.017Z,30.00
2019-02-17T22:51:15.014Z,30.67
2019-02-17T22:53:44.364Z,30.63
2019-02-17T22:56:13.291Z,26.17
2019-02-17T22:58:42.155Z,25.27
2019-02-17T23:01:15.077Z,29.33
2019-02-17T23:03:44.071Z,32.53
2019-02-17T23:06:12.939Z,25.93
2019-02-17T23:08:41.725Z,26.27
2019-02-17T23:11:10.557Z,31.63
2019-02-17T23:13:39.447Z,27.03
2019-02-17T23:16:09.915Z,24.13
2019-02-17T23:18:38.870Z,31.17
2019-02-17T23:21:08.111Z,24.30
2019-02-17T23:23:37.012Z,27.67
2019-02-17T23:26:08.494Z,26.23
2019-02-17T23:28:41.356Z,25.27
2019-02-17T23:31:10.152Z,32.50
2019-02-17T23:33:38.967Z,32.00
2019-02-17T23:36:07.986Z,26.30
2019-02-17T23:38:37.261Z,24.13
2019-02-17T23:41:08.681Z,28.40
2019-02-17T23:43:37.486Z,28.07
2019-02-17T23:46:06.273Z,33.10
2019-02-17T23:48:35.063Z,23.90
2019-02-17T23:51:13.242Z,29.07
2019-02-17T23:53:45.293Z,30.13
2019-02-17T23:56:14.112Z,30.60
2019-02-17T23:58:42.902Z,26.87
